Terminal Aerodrome Forecast
Issued by NWS

Home | Current Version | Previous Version | Graphics & Text | Print | Product List | Glossary On
Versions: 1 2 3 4 5 6 7 8 9 10 11 12 13 14
000
FTUS43 KIWX 190500
TAFSBN
TAF
KSBN 190521Z 1906/2006 25007KT P6SM BKN015 OVC030
      TEMPO 1906/1910 4SM -SHSN BR SCT008 OVC015
     FM191200 32004KT P6SM OVC020=

USA.gov is the U.S. government's official web portal to all federal, state and local government web resources and services.